Terminal Aerodrome Forecast
Issued by NWS Charleston, WV

Current Version | Previous Version | Graphics & Text | Print | Product List | Glossary On
Versions: 1 2 3 4 5 6 7 8 9 10 11 12 13 14 15 16 17 18 19 20 21
000
FTUS41 KRLX 270546
TAFCRW
TAF
KCRW 270546Z 2706/2806 00000KT 6SM +TSRA BR OVC040CB
     FM270700 00000KT 4SM SHRA BR VCTS OVC050CB
      TEMPO 2707/2710 2SM BR SCT004
     FM271000 VRB03KT 3SM SHRA BR OVC070
     FM271400 22007KT 4SM SHRA BR VCTS BKN050CB
     FM271600 23009KT P6SM VCTS BKN040CB
     FM272200 24007KT P6SM BKN025
     FM272300 24007KT P6SM BKN035
     FM280200 27008KT P6SM BKN050
     FM280500 27007KT P6SM BKN025=

USA.gov is the U.S. government's official web portal to all federal, state and local government web resources and services.